sensor_id;sensor_type;location;lat;lon;timestamp;temperature;humidity
26035;DHT22;13809;48.632;11.576;2024-01-07T00:02:59;8.10;44.60
26035;DHT22;13809;48.632;11.576;2024-01-07T00:08:03;8.10;44.60
26035;DHT22;13809;48.632;11.576;2024-01-07T00:13:08;8.10;44.70
26035;DHT22;13809;48.632;11.576;2024-01-07T00:18:11;8.10;44.80
26035;DHT22;13809;48.632;11.576;2024-01-07T00:23:15;8.10;44.60
26035;DHT22;13809;48.632;11.576;2024-01-07T00:28:19;8.10;44.60
26035;DHT22;13809;48.632;11.576;2024-01-07T00:33:22;8.10;44.90
26035;DHT22;13809;48.632;11.576;2024-01-07T00:38:26;8.10;44.80
26035;DHT22;13809;48.632;11.576;2024-01-07T00:43:30;8.10;44.60
26035;DHT22;13809;48.632;11.576;2024-01-07T00:48:34;8.20;45.10
26035;DHT22;13809;48.632;11.576;2024-01-07T00:53:37;8.20;44.80
26035;DHT22;13809;48.632;11.576;2024-01-07T00:58:42;8.20;44.80
26035;DHT22;13809;48.632;11.576;2024-01-07T01:03:45;8.20;44.90
26035;DHT22;13809;48.632;11.576;2024-01-07T01:08:48;8.10;44.80
26035;DHT22;13809;48.632;11.576;2024-01-07T01:13:53;8.10;44.60
26035;DHT22;13809;48.632;11.576;2024-01-07T01:18:56;8.10;45.00
26035;DHT22;13809;48.632;11.576;2024-01-07T01:23:59;8.00;44.70
26035;DHT22;13809;48.632;11.576;2024-01-07T01:29:04;8.00;44.70
26035;DHT22;13809;48.632;11.576;2024-01-07T01:34:08;8.00;45.10
26035;DHT22;13809;48.632;11.576;2024-01-07T01:39:11;7.90;44.80
26035;DHT22;13809;48.632;11.576;2024-01-07T01:44:16;7.90;44.80
26035;DHT22;13809;48.632;11.576;2024-01-07T01:49:19;7.80;45.00
26035;DHT22;13809;48.632;11.576;2024-01-07T01:54:22;7.90;45.10
26035;DHT22;13809;48.632;11.576;2024-01-07T01:59:28;7.80;45.00
26035;DHT22;13809;48.632;11.576;2024-01-07T02:04:32;7.80;45.40
26035;DHT22;13809;48.632;11.576;2024-01-07T02:09:36;7.70;45.10
26035;DHT22;13809;48.632;11.576;2024-01-07T02:14:40;7.70;45.00
26035;DHT22;13809;48.632;11.576;2024-01-07T02:19:44;7.60;45.40
26035;DHT22;13809;48.632;11.576;2024-01-07T02:24:48;7.60;45.20
26035;DHT22;13809;48.632;11.576;2024-01-07T02:29:52;7.60;45.50
26035;DHT22;13809;48.632;11.576;2024-01-07T02:34:55;7.50;45.20
26035;DHT22;13809;48.632;11.576;2024-01-07T02:39:59;7.50;45.40
26035;DHT22;13809;48.632;11.576;2024-01-07T02:45:04;7.40;45.50
26035;DHT22;13809;48.632;11.576;2024-01-07T02:50:07;7.40;45.50
26035;DHT22;13809;48.632;11.576;2024-01-07T02:55:12;7.40;45.70
26035;DHT22;13809;48.632;11.576;2024-01-07T03:00:16;7.30;45.80
26035;DHT22;13809;48.632;11.576;2024-01-07T03:05:19;7.30;45.80
26035;DHT22;13809;48.632;11.576;2024-01-07T03:10:23;7.30;45.60
26035;DHT22;13809;48.632;11.576;2024-01-07T03:15:27;7.20;45.90
26035;DHT22;13809;48.632;11.576;2024-01-07T03:20:30;7.20;45.80
26035;DHT22;13809;48.632;11.576;2024-01-07T03:25:35;7.20;46.40
26035;DHT22;13809;48.632;11.576;2024-01-07T03:30:38;7.20;46.00
26035;DHT22;13809;48.632;11.576;2024-01-07T03:35:41;7.20;45.70
26035;DHT22;13809;48.632;11.576;2024-01-07T03:40:46;7.10;45.80
26035;DHT22;13809;48.632;11.576;2024-01-07T03:45:49;7.20;46.10
26035;DHT22;13809;48.632;11.576;2024-01-07T03:50:52;7.20;45.80
26035;DHT22;13809;48.632;11.576;2024-01-07T03:55:57;7.10;45.80
26035;DHT22;13809;48.632;11.576;2024-01-07T04:01:00;7.20;46.10
26035;DHT22;13809;48.632;11.576;2024-01-07T04:06:06;7.20;45.90
26035;DHT22;13809;48.632;11.576;2024-01-07T04:11:11;7.20;46.20
26035;DHT22;13809;48.632;11.576;2024-01-07T04:16:18;7.20;46.00
26035;DHT22;13809;48.632;11.576;2024-01-07T04:21:21;7.30;46.30
26035;DHT22;13809;48.632;11.576;2024-01-07T04:26:26;7.30;45.80
26035;DHT22;13809;48.632;11.576;2024-01-07T04:31:29;7.30;45.80
26035;DHT22;13809;48.632;11.576;2024-01-07T04:36:32;7.30;45.50
26035;DHT22;13809;48.632;11.576;2024-01-07T04:41:37;7.30;45.50
26035;DHT22;13809;48.632;11.576;2024-01-07T04:46:40;7.30;45.80
26035;DHT22;13809;48.632;11.576;2024-01-07T04:51:43;7.30;45.50
26035;DHT22;13809;48.632;11.576;2024-01-07T04:56:47;7.30;45.60
26035;DHT22;13809;48.632;11.576;2024-01-07T05:01:51;7.30;45.70
26035;DHT22;13809;48.632;11.576;2024-01-07T05:06:54;7.20;45.40
26035;DHT22;13809;48.632;11.576;2024-01-07T05:11:59;7.20;45.30
26035;DHT22;13809;48.632;11.576;2024-01-07T05:17:03;7.20;45.50
26035;DHT22;13809;48.632;11.576;2024-01-07T05:22:06;7.30;45.50
26035;DHT22;13809;48.632;11.576;2024-01-07T05:27:11;7.20;45.30
26035;DHT22;13809;48.632;11.576;2024-01-07T05:32:14;7.20;45.60
26035;DHT22;13809;48.632;11.576;2024-01-07T05:37:17;7.20;45.50
26035;DHT22;13809;48.632;11.576;2024-01-07T05:42:22;7.20;45.50
26035;DHT22;13809;48.632;11.576;2024-01-07T05:47:25;7.20;45.70
26035;DHT22;13809;48.632;11.576;2024-01-07T05:52:28;7.20;45.60
26035;DHT22;13809;48.632;11.576;2024-01-07T05:57:32;7.20;45.40
26035;DHT22;13809;48.632;11.576;2024-01-07T06:02:35;7.20;45.30
26035;DHT22;13809;48.632;11.576;2024-01-07T06:07:39;7.20;45.10
26035;DHT22;13809;48.632;11.576;2024-01-07T06:12:44;7.10;45.00
26035;DHT22;13809;48.632;11.576;2024-01-07T06:17:47;7.10;45.10
26035;DHT22;13809;48.632;11.576;2024-01-07T06:22:50;7.00;44.90
26035;DHT22;13809;48.632;11.576;2024-01-07T06:27:55;6.90;44.90
26035;DHT22;13809;48.632;11.576;2024-01-07T06:32:58;6.90;45.20
26035;DHT22;13809;48.632;11.576;2024-01-07T06:38:01;6.80;45.00
26035;DHT22;13809;48.632;11.576;2024-01-07T06:43:07;6.80;45.10
26035;DHT22;13809;48.632;11.576;2024-01-07T06:48:10;6.80;45.10
26035;DHT22;13809;48.632;11.576;2024-01-07T06:53:14;6.70;44.90
26035;DHT22;13809;48.632;11.576;2024-01-07T06:58:19;6.70;44.90
26035;DHT22;13809;48.632;11.576;2024-01-07T07:03:22;6.70;45.10
26035;DHT22;13809;48.632;11.576;2024-01-07T07:08:26;6.70;44.90
26035;DHT22;13809;48.632;11.576;2024-01-07T07:13:31;6.70;45.00
26035;DHT22;13809;48.632;11.576;2024-01-07T07:18:34;6.70;45.10
26035;DHT22;13809;48.632;11.576;2024-01-07T07:23:37;6.70;45.10
26035;DHT22;13809;48.632;11.576;2024-01-07T07:28:41;6.70;44.90
26035;DHT22;13809;48.632;11.576;2024-01-07T07:33:45;6.70;45.10
26035;DHT22;13809;48.632;11.576;2024-01-07T07:38:48;6.70;45.00
26035;DHT22;13809;48.632;11.576;2024-01-07T07:43:52;6.70;45.00
26035;DHT22;13809;48.632;11.576;2024-01-07T07:48:56;6.70;45.10
26035;DHT22;13809;48.632;11.576;2024-01-07T07:53:59;6.70;45.10
26035;DHT22;13809;48.632;11.576;2024-01-07T07:59:04;6.80;45.10
26035;DHT22;13809;48.632;11.576;2024-01-07T08:04:08;6.80;45.30
26035;DHT22;13809;48.632;11.576;2024-01-07T08:09:12;6.80;45.10
26035;DHT22;13809;48.632;11.576;2024-01-07T08:14:17;6.80;45.20
26035;DHT22;13809;48.632;11.576;2024-01-07T08:19:20;6.80;45.30
26035;DHT22;13809;48.632;11.576;2024-01-07T08:24:23;6.80;45.10
26035;DHT22;13809;48.632;11.576;2024-01-07T08:29:28;6.80;45.10
26035;DHT22;13809;48.632;11.576;2024-01-07T08:34:31;6.80;45.20
26035;DHT22;13809;48.632;11.576;2024-01-07T08:39:34;6.80;45.10
26035;DHT22;13809;48.632;11.576;2024-01-07T08:44:39;6.80;45.20
26035;DHT22;13809;48.632;11.576;2024-01-07T08:49:42;6.70;45.30
26035;DHT22;13809;48.632;11.576;2024-01-07T08:54:46;6.60;45.20
26035;DHT22;13809;48.632;11.576;2024-01-07T08:59:50;6.60;45.40
26035;DHT22;13809;48.632;11.576;2024-01-07T09:04:54;6.50;45.50
26035;DHT22;13809;48.632;11.576;2024-01-07T09:09:59;6.50;45.40
26035;DHT22;13809;48.632;11.576;2024-01-07T09:15:05;6.40;45.50
26035;DHT22;13809;48.632;11.576;2024-01-07T09:20:10;6.30;45.60
26035;DHT22;13809;48.632;11.576;2024-01-07T09:25:14;6.30;45.70
26035;DHT22;13809;48.632;11.576;2024-01-07T09:30:19;6.20;45.60
26035;DHT22;13809;48.632;11.576;2024-01-07T09:35:22;6.20;45.90
26035;DHT22;13809;48.632;11.576;2024-01-07T09:40:26;6.20;45.70
26035;DHT22;13809;48.632;11.576;2024-01-07T09:45:30;6.20;45.70
26035;DHT22;13809;48.632;11.576;2024-01-07T09:50:34;6.10;45.80
26035;DHT22;13809;48.632;11.576;2024-01-07T09:55:44;6.10;45.60
26035;DHT22;13809;48.632;11.576;2024-01-07T10:00:52;6.00;45.90
26035;DHT22;13809;48.632;11.576;2024-01-07T10:05:55;6.00;45.70
26035;DHT22;13809;48.632;11.576;2024-01-07T10:10:59;5.90;45.50
26035;DHT22;13809;48.632;11.576;2024-01-07T10:16:05;5.90;45.50
26035;DHT22;13809;48.632;11.576;2024-01-07T10:21:10;5.80;45.90
26035;DHT22;13809;48.632;11.576;2024-01-07T10:26:13;5.80;45.80
26035;DHT22;13809;48.632;11.576;2024-01-07T10:31:30;5.80;45.90
26035;DHT22;13809;48.632;11.576;2024-01-07T10:36:34;5.70;46.00
26035;DHT22;13809;48.632;11.576;2024-01-07T10:41:38;5.70;46.00
26035;DHT22;13809;48.632;11.576;2024-01-07T10:46:43;5.70;46.10
26035;DHT22;13809;48.632;11.576;2024-01-07T10:51:56;5.70;46.00
26035;DHT22;13809;48.632;11.576;2024-01-07T10:57:01;5.70;46.30
26035;DHT22;13809;48.632;11.576;2024-01-07T11:02:09;5.70;46.00
26035;DHT22;13809;48.632;11.576;2024-01-07T11:07:19;5.60;46.10
26035;DHT22;13809;48.632;11.576;2024-01-07T11:12:26;5.60;46.40
26035;DHT22;13809;48.632;11.576;2024-01-07T11:17:42;5.60;45.90
26035;DHT22;13809;48.632;11.576;2024-01-07T11:22:48;5.60;46.50
26035;DHT22;13809;48.632;11.576;2024-01-07T11:27:51;5.60;45.90
26035;DHT22;13809;48.632;11.576;2024-01-07T11:32:59;5.60;45.90
26035;DHT22;13809;48.632;11.576;2024-01-07T11:38:03;5.70;46.10
26035;DHT22;13809;48.632;11.576;2024-01-07T11:43:07;5.70;45.70
26035;DHT22;13809;48.632;11.576;2024-01-07T11:48:13;5.70;45.70
26035;DHT22;13809;48.632;11.576;2024-01-07T11:53:17;5.70;45.70
26035;DHT22;13809;48.632;11.576;2024-01-07T11:58:20;5.60;45.60
26035;DHT22;13809;48.632;11.576;2024-01-07T12:03:25;5.60;45.40
26035;DHT22;13809;48.632;11.576;2024-01-07T12:08:28;5.60;45.60
26035;DHT22;13809;48.632;11.576;2024-01-07T12:13:32;5.60;45.50
26035;DHT22;13809;48.632;11.576;2024-01-07T12:18:37;5.50;45.50
26035;DHT22;13809;48.632;11.576;2024-01-07T12:23:41;5.50;45.50
26035;DHT22;13809;48.632;11.576;2024-01-07T12:28:52;5.50;45.50
26035;DHT22;13809;48.632;11.576;2024-01-07T12:33:57;5.50;45.60
26035;DHT22;13809;48.632;11.576;2024-01-07T12:39:02;5.50;45.60
26035;DHT22;13809;48.632;11.576;2024-01-07T12:44:05;5.50;45.40
26035;DHT22;13809;48.632;11.576;2024-01-07T12:49:11;5.50;45.30
26035;DHT22;13809;48.632;11.576;2024-01-07T12:54:15;5.40;45.40
26035;DHT22;13809;48.632;11.576;2024-01-07T12:59:18;5.40;45.30
26035;DHT22;13809;48.632;11.576;2024-01-07T13:04:22;5.40;45.20
26035;DHT22;13809;48.632;11.576;2024-01-07T13:09:26;5.30;45.30
26035;DHT22;13809;48.632;11.576;2024-01-07T13:14:29;5.30;45.30
26035;DHT22;13809;48.632;11.576;2024-01-07T13:19:34;5.30;45.20
26035;DHT22;13809;48.632;11.576;2024-01-07T13:24:37;5.20;45.30
26035;DHT22;13809;48.632;11.576;2024-01-07T13:29:40;5.10;45.10
26035;DHT22;13809;48.632;11.576;2024-01-07T13:34:45;5.10;45.20
26035;DHT22;13809;48.632;11.576;2024-01-07T13:39:48;5.00;45.20
26035;DHT22;13809;48.632;11.576;2024-01-07T13:44:52;5.00;45.30
26035;DHT22;13809;48.632;11.576;2024-01-07T13:49:56;5.00;45.40
26035;DHT22;13809;48.632;11.576;2024-01-07T13:55:00;4.90;45.30
26035;DHT22;13809;48.632;11.576;2024-01-07T14:00:04;4.90;45.20
26035;DHT22;13809;48.632;11.576;2024-01-07T14:05:12;4.90;45.30
26035;DHT22;13809;48.632;11.576;2024-01-07T14:10:16;4.90;45.20
26035;DHT22;13809;48.632;11.576;2024-01-07T14:15:21;4.90;45.20
26035;DHT22;13809;48.632;11.576;2024-01-07T14:20:27;4.90;45.10
26035;DHT22;13809;48.632;11.576;2024-01-07T14:25:30;4.90;45.10
26035;DHT22;13809;48.632;11.576;2024-01-07T14:30:33;4.90;45.20
26035;DHT22;13809;48.632;11.576;2024-01-07T14:35:38;4.90;45.20
26035;DHT22;13809;48.632;11.576;2024-01-07T14:40:41;4.90;45.10
26035;DHT22;13809;48.632;11.576;2024-01-07T14:45:48;4.90;45.00
26035;DHT22;13809;48.632;11.576;2024-01-07T14:50:53;4.80;44.90
26035;DHT22;13809;48.632;11.576;2024-01-07T14:55:56;4.80;44.90
26035;DHT22;13809;48.632;11.576;2024-01-07T15:01:00;4.70;44.80
26035;DHT22;13809;48.632;11.576;2024-01-07T15:06:05;4.70;44.80
26035;DHT22;13809;48.632;11.576;2024-01-07T15:11:10;4.60;44.70
26035;DHT22;13809;48.632;11.576;2024-01-07T15:16:13;4.60;45.00
26035;DHT22;13809;48.632;11.576;2024-01-07T15:21:18;4.60;45.40
26035;DHT22;13809;48.632;11.576;2024-01-07T15:26:21;4.60;45.60
26035;DHT22;13809;48.632;11.576;2024-01-07T15:31:24;4.70;46.00
26035;DHT22;13809;48.632;11.576;2024-01-07T15:36:29;4.90;46.40
26035;DHT22;13809;48.632;11.576;2024-01-07T15:41:32;5.10;46.40
26035;DHT22;13809;48.632;11.576;2024-01-07T15:46:35;5.20;45.70
26035;DHT22;13809;48.632;11.576;2024-01-07T15:51:40;5.30;45.00
26035;DHT22;13809;48.632;11.576;2024-01-07T15:56:43;5.40;44.50
26035;DHT22;13809;48.632;11.576;2024-01-07T16:01:47;5.40;45.20
26035;DHT22;13809;48.632;11.576;2024-01-07T16:06:52;5.30;44.50
26035;DHT22;13809;48.632;11.576;2024-01-07T16:11:55;5.20;44.20
26035;DHT22;13809;48.632;11.576;2024-01-07T16:16:59;5.20;44.30
26035;DHT22;13809;48.632;11.576;2024-01-07T16:22:04;5.20;44.50
26035;DHT22;13809;48.632;11.576;2024-01-07T16:27:12;5.20;46.00
26035;DHT22;13809;48.632;11.576;2024-01-07T16:32:16;5.30;47.00
26035;DHT22;13809;48.632;11.576;2024-01-07T16:37:22;5.60;47.30
26035;DHT22;13809;48.632;11.576;2024-01-07T16:42:25;5.80;46.00
26035;DHT22;13809;48.632;11.576;2024-01-07T16:47:28;6.00;44.90
26035;DHT22;13809;48.632;11.576;2024-01-07T16:52:33;6.00;44.10
26035;DHT22;13809;48.632;11.576;2024-01-07T16:57:36;5.90;43.40
26035;DHT22;13809;48.632;11.576;2024-01-07T17:02:41;5.60;43.10
26035;DHT22;13809;48.632;11.576;2024-01-07T17:07:45;5.40;43.10
26035;DHT22;13809;48.632;11.576;2024-01-07T17:12:49;5.30;43.00
26035;DHT22;13809;48.632;11.576;2024-01-07T17:17:53;5.10;43.30
26035;DHT22;13809;48.632;11.576;2024-01-07T17:22:58;5.00;43.50
26035;DHT22;13809;48.632;11.576;2024-01-07T17:28:02;4.90;43.50
26035;DHT22;13809;48.632;11.576;2024-01-07T17:33:05;4.80;43.50
26035;DHT22;13809;48.632;11.576;2024-01-07T17:38:12;4.70;43.40
26035;DHT22;13809;48.632;11.576;2024-01-07T17:43:20;4.60;43.10
26035;DHT22;13809;48.632;11.576;2024-01-07T17:48:24;4.50;43.20
26035;DHT22;13809;48.632;11.576;2024-01-07T17:53:29;4.50;43.40
26035;DHT22;13809;48.632;11.576;2024-01-07T17:58:33;4.50;43.30
26035;DHT22;13809;48.632;11.576;2024-01-07T18:03:36;4.50;43.30
26035;DHT22;13809;48.632;11.576;2024-01-07T18:08:41;4.50;43.10
26035;DHT22;13809;48.632;11.576;2024-01-07T18:13:53;4.50;42.80
26035;DHT22;13809;48.632;11.576;2024-01-07T18:18:58;4.50;42.90
26035;DHT22;13809;48.632;11.576;2024-01-07T18:24:03;4.50;43.00
26035;DHT22;13809;48.632;11.576;2024-01-07T18:29:07;4.50;42.90
26035;DHT22;13809;48.632;11.576;2024-01-07T18:34:13;4.40;42.90
26035;DHT22;13809;48.632;11.576;2024-01-07T18:39:18;4.40;42.90
26035;DHT22;13809;48.632;11.576;2024-01-07T18:44:22;4.40;42.60
26035;DHT22;13809;48.632;11.576;2024-01-07T18:49:27;4.40;42.90
26035;DHT22;13809;48.632;11.576;2024-01-07T18:54:32;4.40;43.00
26035;DHT22;13809;48.632;11.576;2024-01-07T18:59:35;4.40;42.90
26035;DHT22;13809;48.632;11.576;2024-01-07T19:04:39;4.40;43.00
26035;DHT22;13809;48.632;11.576;2024-01-07T19:09:44;4.40;43.00
26035;DHT22;13809;48.632;11.576;2024-01-07T19:14:47;4.40;42.90
26035;DHT22;13809;48.632;11.576;2024-01-07T19:19:50;4.30;43.00
26035;DHT22;13809;48.632;11.576;2024-01-07T19:24:55;4.30;43.10
26035;DHT22;13809;48.632;11.576;2024-01-07T19:29:58;4.30;43.10
26035;DHT22;13809;48.632;11.576;2024-01-07T19:35:01;4.30;43.30
26035;DHT22;13809;48.632;11.576;2024-01-07T19:40:07;4.30;43.50
26035;DHT22;13809;48.632;11.576;2024-01-07T19:45:10;4.30;42.90
26035;DHT22;13809;48.632;11.576;2024-01-07T19:50:14;4.30;42.90
26035;DHT22;13809;48.632;11.576;2024-01-07T19:55:18;4.20;42.90
26035;DHT22;13809;48.632;11.576;2024-01-07T20:00:21;4.20;42.50
26035;DHT22;13809;48.632;11.576;2024-01-07T20:05:25;4.10;42.80
26035;DHT22;13809;48.632;11.576;2024-01-07T20:10:30;4.10;42.80
26035;DHT22;13809;48.632;11.576;2024-01-07T20:15:33;4.10;42.50
26035;DHT22;13809;48.632;11.576;2024-01-07T20:20:38;4.00;42.60
26035;DHT22;13809;48.632;11.576;2024-01-07T20:25:42;4.00;42.20
26035;DHT22;13809;48.632;11.576;2024-01-07T20:30:48;3.90;41.80
26035;DHT22;13809;48.632;11.576;2024-01-07T20:35:51;3.90;41.80
26035;DHT22;13809;48.632;11.576;2024-01-07T20:40:58;3.80;41.70
26035;DHT22;13809;48.632;11.576;2024-01-07T20:46:01;3.70;41.70
26035;DHT22;13809;48.632;11.576;2024-01-07T20:51:05;3.60;41.80
26035;DHT22;13809;48.632;11.576;2024-01-07T20:56:09;3.60;41.60
26035;DHT22;13809;48.632;11.576;2024-01-07T21:01:13;3.50;41.50
26035;DHT22;13809;48.632;11.576;2024-01-07T21:06:16;3.50;41.50
26035;DHT22;13809;48.632;11.576;2024-01-07T21:11:21;3.50;41.50
26035;DHT22;13809;48.632;11.576;2024-01-07T21:16:24;3.40;41.50
26035;DHT22;13809;48.632;11.576;2024-01-07T21:21:27;3.40;41.50
26035;DHT22;13809;48.632;11.576;2024-01-07T21:26:32;3.40;42.10
26035;DHT22;13809;48.632;11.576;2024-01-07T21:31:35;3.30;41.30
26035;DHT22;13809;48.632;11.576;2024-01-07T21:36:41;3.30;41.30
26035;DHT22;13809;48.632;11.576;2024-01-07T21:41:46;3.30;41.30
26035;DHT22;13809;48.632;11.576;2024-01-07T21:46:51;3.20;41.20
26035;DHT22;13809;48.632;11.576;2024-01-07T21:51:54;3.20;41.40
26035;DHT22;13809;48.632;11.576;2024-01-07T21:56:59;3.20;41.30
26035;DHT22;13809;48.632;11.576;2024-01-07T22:02:02;3.20;41.20
26035;DHT22;13809;48.632;11.576;2024-01-07T22:07:05;3.10;41.20
26035;DHT22;13809;48.632;11.576;2024-01-07T22:12:10;3.10;41.20
26035;DHT22;13809;48.632;11.576;2024-01-07T22:17:13;3.00;40.80
26035;DHT22;13809;48.632;11.576;2024-01-07T22:22:19;3.00;41.00
26035;DHT22;13809;48.632;11.576;2024-01-07T22:27:23;2.90;41.00
26035;DHT22;13809;48.632;11.576;2024-01-07T22:32:27;3.00;40.80
26035;DHT22;13809;48.632;11.576;2024-01-07T22:37:30;2.80;40.70
26035;DHT22;13809;48.632;11.576;2024-01-07T22:42:36;2.70;40.50
26035;DHT22;13809;48.632;11.576;2024-01-07T22:47:39;2.70;40.20
26035;DHT22;13809;48.632;11.576;2024-01-07T22:52:43;2.60;40.10
26035;DHT22;13809;48.632;11.576;2024-01-07T22:57:49;2.50;40.10
26035;DHT22;13809;48.632;11.576;2024-01-07T23:02:54;2.50;40.20
26035;DHT22;13809;48.632;11.576;2024-01-07T23:07:57;2.40;40.60
26035;DHT22;13809;48.632;11.576;2024-01-07T23:13:02;2.40;40.60
26035;DHT22;13809;48.632;11.576;2024-01-07T23:18:05;2.40;40.40
26035;DHT22;13809;48.632;11.576;2024-01-07T23:23:11;2.40;40.30
26035;DHT22;13809;48.632;11.576;2024-01-07T23:28:16;2.50;40.40
26035;DHT22;13809;48.632;11.576;2024-01-07T23:33:19;2.30;40.20
26035;DHT22;13809;48.632;11.576;2024-01-07T23:38:22;2.30;40.50
26035;DHT22;13809;48.632;11.576;2024-01-07T23:43:27;2.30;40.50
26035;DHT22;13809;48.632;11.576;2024-01-07T23:48:31;2.30;40.60
26035;DHT22;13809;48.632;11.576;2024-01-07T23:53:35;2.30;40.50
26035;DHT22;13809;48.632;11.576;2024-01-07T23:58:39;2.30;40.20
